Time;durP1;ratioP1;P1;durP2;ratioP2;P2;SDS_P1;SDS_P2;PMS_P1;PMS_P2;Temp;Humidity;BMP_temperature;BMP_pressure;BME280_temperature;BME280_humidity;BME280_pressure;Samples;Min_cycle;Max_cycle;Signal;HPM_P1;HPM_P2
2023/04/25 00:02:00;;;;;;;12.95;2.63;;;8.40;99.90;;;;;;6189573;23;20318;-88
2023/04/25 00:04:27;;;;;;;15.82;3.13;;;8.50;99.90;;;;;;6215935;23;20020;-88
2023/04/25 00:06:53;;;;;;;16.55;3.38;;;8.50;99.90;;;;;;6189818;23;20024;-88
2023/04/25 00:09:19;;;;;;;12.73;2.63;;;8.40;99.90;;;;;;6212597;23;20446;-87
2023/04/25 00:11:45;;;;;;;18.67;3.38;;;8.40;99.90;;;;;;6214284;23;20091;-87
2023/04/25 00:14:10;;;;;;;11.65;2.60;;;8.40;99.90;;;;;;6215168;23;20020;-87
2023/04/25 00:16:36;;;;;;;14.77;2.83;;;8.40;99.90;;;;;;6216187;23;20051;-87
2023/04/25 00:19:02;;;;;;;19.27;3.13;;;8.40;99.90;;;;;;6214204;23;20485;-87
2023/04/25 00:21:28;;;;;;;14.43;3.08;;;8.40;99.90;;;;;;6188950;23;20087;-88
2023/04/25 00:23:55;;;;;;;17.13;3.08;;;8.40;99.90;;;;;;6188912;23;20043;-88
2023/04/25 00:26:21;;;;;;;11.07;2.70;;;8.40;99.90;;;;;;6188859;23;20036;-87
2023/04/25 00:28:47;;;;;;;14.75;3.08;;;8.40;99.90;;;;;;6189334;23;20338;-88
2023/04/25 00:31:13;;;;;;;15.43;3.25;;;8.30;99.90;;;;;;6189320;23;20155;-87
2023/04/25 00:33:38;;;;;;;12.20;3.28;;;8.30;99.90;;;;;;6189079;23;20449;-88
2023/04/25 00:36:05;;;;;;;13.30;3.20;;;8.20;99.90;;;;;;6190538;23;20107;-88
2023/04/25 00:38:30;;;;;;;9.45;2.83;;;8.20;99.90;;;;;;6189357;23;20024;-88
2023/04/25 00:40:57;;;;;;;11.10;2.97;;;8.20;99.90;;;;;;6215283;23;20020;-88
2023/04/25 00:43:25;;;;;;;17.10;3.08;;;8.20;99.90;;;;;;6189247;23;20013;-87
2023/04/25 00:45:52;;;;;;;14.27;3.50;;;8.20;99.90;;;;;;6215828;23;20449;-88
2023/04/25 00:48:18;;;;;;;13.95;3.17;;;8.20;99.90;;;;;;6214960;23;20510;-88
2023/04/25 00:50:53;;;;;;;13.45;2.80;;;8.20;99.90;;;;;;6189143;23;20009;-88
2023/04/25 00:53:19;;;;;;;10.70;2.78;;;8.20;99.90;;;;;;6189419;23;20012;-88
2023/04/25 00:55:45;;;;;;;15.45;3.15;;;8.20;99.90;;;;;;6188000;23;20408;-88
2023/04/25 00:58:10;;;;;;;13.98;3.00;;;8.20;99.90;;;;;;6216345;23;20048;-88
2023/04/25 01:00:36;;;;;;;14.43;3.10;;;8.10;99.90;;;;;;6214584;23;20051;-88
2023/04/25 01:03:03;;;;;;;16.77;3.42;;;8.20;99.90;;;;;;6216357;23;20008;-88
2023/04/25 01:05:29;;;;;;;9.70;2.90;;;8.20;99.90;;;;;;6215829;23;20084;-88
2023/04/25 01:07:55;;;;;;;15.05;3.20;;;8.10;99.90;;;;;;6187481;23;20168;-88
2023/04/25 01:10:21;;;;;;;17.33;3.45;;;8.10;99.90;;;;;;6215556;23;20015;-87
2023/04/25 01:12:47;;;;;;;14.02;3.17;;;8.10;99.90;;;;;;6189088;23;20020;-88
2023/04/25 01:15:12;;;;;;;10.27;2.70;;;8.10;99.90;;;;;;6214444;23;20039;-87
2023/04/25 01:17:41;;;;;;;12.73;2.85;;;8.00;99.90;;;;;;6215593;23;20017;-88
2023/04/25 01:20:09;;;;;;;17.45;3.67;;;8.00;99.90;;;;;;6215970;23;20013;-87
2023/04/25 01:22:35;;;;;;;10.35;2.60;;;8.00;99.90;;;;;;6214503;23;20515;-88
2023/04/25 01:25:01;;;;;;;12.73;2.58;;;8.00;99.90;;;;;;6188733;23;20024;-88
2023/04/25 01:27:27;;;;;;;10.75;2.72;;;8.00;99.90;;;;;;6189219;23;20021;-88
2023/04/25 01:29:55;;;;;;;16.55;3.15;;;8.00;99.90;;;;;;6187277;23;20421;-87
2023/04/25 01:32:22;;;;;;;13.65;2.95;;;8.00;99.90;;;;;;6188995;23;20074;-87
2023/04/25 01:34:48;;;;;;;11.40;2.63;;;7.90;99.90;;;;;;6188348;23;20020;-86
2023/04/25 01:37:13;;;;;;;13.50;3.05;;;7.90;99.90;;;;;;6187906;23;20054;-87
2023/04/25 01:39:39;;;;;;;12.73;2.78;;;7.90;99.90;;;;;;6215551;23;20381;-87
2023/04/25 01:42:05;;;;;;;14.93;3.13;;;7.90;99.90;;;;;;6188841;23;20021;-87
2023/04/25 01:44:30;;;;;;;10.50;2.42;;;7.90;99.90;;;;;;6214367;23;20087;-87
2023/04/25 01:46:56;;;;;;;20.15;3.85;;;7.90;99.90;;;;;;6215180;23;20079;-87
2023/04/25 01:49:22;;;;;;;17.30;3.20;;;7.90;99.90;;;;;;6215962;23;20008;-88
2023/04/25 01:51:48;;;;;;;13.70;2.97;;;7.90;99.90;;;;;;6187553;23;20091;-87
2023/04/25 01:54:13;;;;;;;11.85;2.88;;;7.80;99.90;;;;;;6215527;23;20020;-88
2023/04/25 01:56:40;;;;;;;12.00;2.63;;;7.80;99.90;;;;;;6188376;23;20021;-88
2023/04/25 01:59:06;;;;;;;13.27;2.85;;;7.80;99.90;;;;;;6188010;23;20016;-88
2023/04/25 02:01:32;;;;;;;11.77;2.80;;;7.80;99.90;;;;;;6188546;23;20332;-88
2023/04/25 02:03:57;;;;;;;13.35;2.75;;;7.80;99.90;;;;;;6187862;23;20020;-88
2023/04/25 02:06:23;;;;;;;12.43;2.60;;;7.80;99.90;;;;;;6215137;23;20092;-87
2023/04/25 02:08:48;;;;;;;17.70;3.08;;;7.80;99.90;;;;;;6215179;23;20063;-88
2023/04/25 02:11:14;;;;;;;13.07;3.10;;;7.80;99.90;;;;;;6187711;23;20349;-88
2023/04/25 02:13:40;;;;;;;13.65;2.67;;;7.80;99.90;;;;;;6188457;23;20062;-88
2023/04/25 02:16:05;;;;;;;10.70;3.15;;;7.80;99.90;;;;;;6187876;23;20016;-87
2023/04/25 02:18:31;;;;;;;16.00;2.78;;;7.70;99.90;;;;;;6187859;23;20441;-88
2023/04/25 02:20:59;;;;;;;16.25;2.92;;;7.70;99.90;;;;;;6188681;23;20013;-88
2023/04/25 02:23:25;;;;;;;11.40;2.35;;;7.70;99.90;;;;;;6188276;23;20029;-88
2023/04/25 02:25:51;;;;;;;12.07;2.67;;;7.70;99.90;;;;;;6186911;23;20020;-87
2023/04/25 02:28:17;;;;;;;14.57;2.75;;;7.70;99.90;;;;;;6215580;23;20024;-88
2023/04/25 02:30:42;;;;;;;10.10;2.60;;;7.70;99.90;;;;;;6214965;23;20016;-88
2023/04/25 02:33:08;;;;;;;18.17;2.65;;;7.70;99.90;;;;;;6187652;23;20008;-88
2023/04/25 02:35:34;;;;;;;15.00;2.85;;;7.70;99.90;;;;;;6187722;23;20020;-88
2023/04/25 02:37:59;;;;;;;11.82;2.53;;;7.70;99.90;;;;;;6215365;23;20052;-88
2023/04/25 02:40:25;;;;;;;11.77;2.50;;;7.60;99.90;;;;;;6187533;23;20516;-88
2023/04/25 02:42:51;;;;;;;17.23;2.63;;;7.60;99.90;;;;;;6215124;23;20438;-87
2023/04/25 02:45:17;;;;;;;16.15;2.88;;;7.60;99.90;;;;;;6187655;23;20315;-88
2023/04/25 02:47:42;;;;;;;10.90;2.67;;;7.60;99.90;;;;;;6186916;23;20027;-88
2023/04/25 02:50:08;;;;;;;15.20;2.67;;;7.60;99.90;;;;;;6215297;23;20005;-88
2023/04/25 02:52:34;;;;;;;14.20;2.88;;;7.60;99.90;;;;;;6215029;23;20310;-88
2023/04/25 02:54:59;;;;;;;11.00;2.30;;;7.50;99.90;;;;;;6187384;23;20442;-88
2023/04/25 02:57:25;;;;;;;12.07;2.78;;;7.50;99.90;;;;;;6215426;23;20087;-88
2023/04/25 02:59:50;;;;;;;12.05;2.40;;;7.50;99.90;;;;;;6188233;23;20016;-88
2023/04/25 03:02:16;;;;;;;15.80;2.90;;;7.50;99.90;;;;;;6214483;23;20433;-88
2023/04/25 03:04:42;;;;;;;12.35;2.65;;;7.50;99.90;;;;;;6187814;23;20456;-88
2023/04/25 03:07:08;;;;;;;10.27;2.20;;;7.50;99.90;;;;;;6213994;23;20024;-87
2023/04/25 03:09:34;;;;;;;15.40;2.45;;;7.50;99.90;;;;;;6187739;23;20337;-88
2023/04/25 03:12:00;;;;;;;15.40;2.40;;;7.50;99.90;;;;;;6215245;23;20067;-87
2023/04/25 03:14:25;;;;;;;15.82;2.78;;;7.40;99.90;;;;;;6187619;23;20091;-88
2023/04/25 03:16:51;;;;;;;14.07;2.55;;;7.40;99.90;;;;;;6187884;23;20389;-88
2023/04/25 03:19:17;;;;;;;14.43;2.78;;;7.40;99.90;;;;;;6188405;23;20044;-88
2023/04/25 03:21:43;;;;;;;13.25;2.30;;;7.30;99.90;;;;;;6214116;23;20009;-88
2023/04/25 03:24:10;;;;;;;13.77;2.17;;;7.30;99.90;;;;;;6214798;23;20457;-88
2023/04/25 03:26:36;;;;;;;11.02;2.40;;;7.20;99.90;;;;;;6187532;23;20028;-88
2023/04/25 03:29:02;;;;;;;8.85;2.00;;;7.20;99.90;;;;;;6188749;23;20306;-88
2023/04/25 03:31:28;;;;;;;10.95;2.10;;;7.20;99.90;;;;;;6217327;23;20075;-89
2023/04/25 03:33:53;;;;;;;8.63;1.63;;;7.20;99.90;;;;;;6216778;23;20008;-88
2023/04/25 03:36:19;;;;;;;9.00;1.90;;;7.10;99.90;;;;;;6189461;23;20070;-88
2023/04/25 03:38:45;;;;;;;9.80;1.77;;;7.10;99.90;;;;;;6189846;23;20013;-87
2023/04/25 03:41:11;;;;;;;8.38;1.70;;;7.10;99.90;;;;;;6216767;23;20021;-86
2023/04/25 03:43:36;;;;;;;9.30;1.85;;;7.10;99.90;;;;;;6188486;23;20100;-87
2023/04/25 03:46:02;;;;;;;14.27;2.08;;;7.10;99.90;;;;;;6189855;23;20052;-88
2023/04/25 03:48:27;;;;;;;9.73;1.73;;;7.10;99.90;;;;;;6189739;23;20072;-88
2023/04/25 03:50:54;;;;;;;9.23;1.92;;;7.10;99.90;;;;;;6215825;23;20009;-88
2023/04/25 03:53:20;;;;;;;8.52;2.00;;;7.10;99.90;;;;;;6216416;23;20008;-87
2023/04/25 03:55:45;;;;;;;9.38;1.88;;;7.10;99.90;;;;;;6216097;23;20433;-89
2023/04/25 03:58:11;;;;;;;6.70;1.67;;;7.10;99.90;;;;;;6215524;23;20020;-87
2023/04/25 04:00:37;;;;;;;10.60;1.90;;;7.10;99.90;;;;;;6216488;23;20019;-87
2023/04/25 04:03:02;;;;;;;11.25;1.90;;;7.10;99.90;;;;;;6216902;23;20017;-88
2023/04/25 04:05:28;;;;;;;7.53;1.55;;;7.10;99.90;;;;;;6215497;23;20017;-86
2023/04/25 04:07:54;;;;;;;7.28;1.70;;;7.10;99.90;;;;;;6189522;23;20314;-87
2023/04/25 04:10:20;;;;;;;8.52;2.20;;;7.10;99.90;;;;;;6189529;23;20016;-86
2023/04/25 04:12:45;;;;;;;8.88;1.40;;;7.10;99.90;;;;;;6188891;23;20028;-89
2023/04/25 04:15:11;;;;;;;7.20;1.77;;;7.10;99.90;;;;;;6189644;23;20020;-86
2023/04/25 04:17:37;;;;;;;9.88;2.00;;;7.10;99.90;;;;;;6188036;23;20088;-86
2023/04/25 04:20:03;;;;;;;5.82;1.52;;;7.00;99.90;;;;;;6189141;23;20056;-87
2023/04/25 04:22:29;;;;;;;8.13;1.60;;;7.00;99.90;;;;;;6216205;23;20457;-86
2023/04/25 04:24:56;;;;;;;5.80;1.40;;;7.00;99.90;;;;;;6215845;23;20013;-86
2023/04/25 04:27:23;;;;;;;8.27;1.67;;;7.00;99.90;;;;;;6215843;23;20029;-86
2023/04/25 04:29:50;;;;;;;8.18;1.90;;;7.00;99.90;;;;;;6188996;23;20017;-88
2023/04/25 04:32:17;;;;;;;12.65;1.83;;;7.00;99.90;;;;;;6189284;23;20013;-86
2023/04/25 04:34:42;;;;;;;10.25;1.52;;;6.90;99.90;;;;;;6189662;23;20016;-88
2023/04/25 04:37:09;;;;;;;12.70;1.92;;;6.90;99.90;;;;;;6189636;23;20021;-88
2023/04/25 04:39:35;;;;;;;10.05;1.67;;;6.80;99.90;;;;;;6214642;23;20438;-88
2023/04/25 04:42:04;;;;;;;6.78;1.63;;;6.80;99.90;;;;;;6189935;23;20024;-88
2023/04/25 04:44:34;;;;;;;6.25;1.65;;;6.80;99.90;;;;;;6216619;23;20398;-88
2023/04/25 04:46:59;;;;;;;5.95;1.45;;;6.80;99.90;;;;;;6215770;23;20422;-88
2023/04/25 04:49:26;;;;;;;7.65;1.50;;;6.80;99.90;;;;;;6189866;23;20013;-88
2023/04/25 04:51:52;;;;;;;8.48;1.48;;;6.80;99.90;;;;;;6216105;23;20020;-88
2023/04/25 04:54:17;;;;;;;9.40;1.73;;;6.80;99.90;;;;;;6188805;23;20008;-88
2023/04/25 04:56:43;;;;;;;6.20;1.60;;;6.80;99.90;;;;;;6189244;23;20016;-88
2023/04/25 04:59:09;;;;;;;12.10;2.08;;;6.80;99.90;;;;;;6216588;23;20028;-88
2023/04/25 05:01:37;;;;;;;9.80;2.00;;;6.80;99.90;;;;;;6188402;23;20013;-88
2023/04/25 05:04:03;;;;;;;7.43;1.55;;;6.80;99.90;;;;;;6216503;23;20016;-88
2023/04/25 05:06:29;;;;;;;10.55;1.90;;;6.80;99.90;;;;;;6189349;23;20020;-88
2023/04/25 05:08:55;;;;;;;6.43;1.63;;;6.80;99.90;;;;;;6188403;23;20023;-88
2023/04/25 05:11:22;;;;;;;7.18;1.60;;;6.80;99.90;;;;;;6189422;23;20023;-88
2023/04/25 05:13:49;;;;;;;5.57;1.30;;;6.80;99.90;;;;;;6215755;23;20299;-88
2023/04/25 05:16:15;;;;;;;9.90;1.75;;;6.80;99.90;;;;;;6189325;23;20490;-88
2023/04/25 05:18:40;;;;;;;9.35;1.65;;;6.80;99.90;;;;;;6215965;23;20055;-88
2023/04/25 05:21:06;;;;;;;9.45;1.83;;;6.80;99.90;;;;;;6214063;23;20055;-88
2023/04/25 05:23:32;;;;;;;7.22;1.67;;;6.80;99.90;;;;;;6188841;23;20024;-88
2023/04/25 05:25:59;;;;;;;7.38;1.80;;;6.80;99.90;;;;;;6189289;23;20028;-89
2023/04/25 05:28:24;;;;;;;10.68;2.88;;;6.80;99.90;;;;;;6188657;23;20467;-88
2023/04/25 05:30:50;;;;;;;9.82;2.53;;;6.70;99.90;;;;;;6215975;23;20023;-88
2023/04/25 05:33:16;;;;;;;6.80;1.70;;;6.70;99.90;;;;;;6216340;23;20016;-89
2023/04/25 05:35:42;;;;;;;11.45;2.30;;;6.70;99.90;;;;;;6188088;23;20021;-89
2023/04/25 05:38:07;;;;;;;10.82;1.90;;;6.70;99.90;;;;;;6189003;23;20099;-88
2023/04/25 05:40:33;;;;;;;6.90;1.55;;;6.70;99.90;;;;;;6215783;23;20024;-88
2023/04/25 05:42:59;;;;;;;8.38;1.80;;;6.70;99.90;;;;;;6188075;23;20087;-88
2023/04/25 05:45:25;;;;;;;8.70;1.70;;;6.70;99.90;;;;;;6215542;23;20126;-88
2023/04/25 05:47:50;;;;;;;8.02;1.88;;;6.70;99.90;;;;;;6215799;23;20079;-88
2023/04/25 05:50:16;;;;;;;12.43;1.98;;;6.70;99.90;;;;;;6188113;23;20024;-88
2023/04/25 05:52:41;;;;;;;7.35;1.88;;;6.70;99.90;;;;;;6215469;23;20013;-89
2023/04/25 05:55:07;;;;;;;14.45;2.50;;;6.70;99.90;;;;;;6189115;23;20399;-88
2023/04/25 05:57:33;;;;;;;10.60;1.80;;;6.70;99.90;;;;;;6187856;23;20017;-89
2023/04/25 05:59:59;;;;;;;9.75;1.98;;;6.70;99.90;;;;;;6189173;23;20452;-88
2023/04/25 06:02:25;;;;;;;9.07;1.85;;;6.70;99.90;;;;;;6215636;23;20467;-88
2023/04/25 06:04:51;;;;;;;14.30;2.60;;;6.70;99.90;;;;;;6187557;23;20019;-87
2023/04/25 06:07:17;;;;;;;13.00;2.20;;;6.70;99.90;;;;;;6215748;23;20040;-88
2023/04/25 06:09:44;;;;;;;12.27;2.17;;;6.70;99.90;;;;;;6215443;23;20024;-88
2023/04/25 06:12:09;;;;;;;9.65;2.00;;;6.80;99.90;;;;;;6214358;23;20334;-88
2023/04/25 06:14:35;;;;;;;16.27;2.10;;;6.80;99.90;;;;;;6188402;23;20023;-88
2023/04/25 06:17:06;;;;;;;15.18;2.35;;;6.80;99.90;;;;;;6187847;23;20021;-88
2023/04/25 06:19:35;;;;;;;11.73;1.85;;;6.80;99.90;;;;;;6188638;23;20142;-88
2023/04/25 06:22:01;;;;;;;9.18;1.98;;;6.90;99.90;;;;;;6215809;23;20024;-89
2023/04/25 06:24:27;;;;;;;11.77;1.85;;;6.90;99.90;;;;;;6187646;23;20017;-88
2023/04/25 06:26:53;;;;;;;9.40;1.88;;;6.90;99.90;;;;;;6188371;23;20099;-88
2023/04/25 06:29:19;;;;;;;7.32;1.67;;;7.00;99.90;;;;;;6215499;23;20043;-87
2023/04/25 06:31:45;;;;;;;13.07;1.95;;;7.00;99.90;;;;;;6187624;23;20067;-88
2023/04/25 06:34:10;;;;;;;8.77;1.80;;;7.10;99.90;;;;;;6215687;23;20070;-88
2023/04/25 06:36:36;;;;;;;12.77;1.90;;;7.10;99.90;;;;;;6215734;23;20008;-88
2023/04/25 06:39:02;;;;;;;11.23;1.58;;;7.20;99.90;;;;;;6188368;23;20016;-89
2023/04/25 06:41:27;;;;;;;8.27;1.58;;;7.20;99.90;;;;;;6215743;23;20008;-89
2023/04/25 06:43:53;;;;;;;7.60;1.73;;;7.20;99.90;;;;;;6214957;23;20035;-89
2023/04/25 06:46:19;;;;;;;12.20;2.05;;;7.20;99.90;;;;;;6214883;23;20307;-89
2023/04/25 06:48:44;;;;;;;8.07;1.50;;;7.20;99.90;;;;;;6215166;23;20013;-88
2023/04/25 06:51:10;;;;;;;10.88;1.95;;;7.30;99.90;;;;;;6188906;23;20349;-88
2023/04/25 06:53:36;;;;;;;11.30;2.03;;;7.30;99.90;;;;;;6214664;23;20013;-88
2023/04/25 06:56:02;;;;;;;8.50;1.60;;;7.30;99.90;;;;;;6188420;23;20071;-88
2023/04/25 06:58:28;;;;;;;11.52;1.70;;;7.30;99.90;;;;;;6189932;23;20091;-88
2023/04/25 07:00:54;;;;;;;9.20;1.52;;;7.40;99.90;;;;;;6214362;23;20051;-88
2023/04/25 07:03:20;;;;;;;11.50;2.10;;;7.40;99.90;;;;;;6190461;23;20008;-88
2023/04/25 07:05:46;;;;;;;13.68;1.90;;;7.50;99.90;;;;;;6217022;23;20016;-88
2023/04/25 07:08:12;;;;;;;11.52;1.80;;;7.50;99.90;;;;;;6216753;23;20048;-88
2023/04/25 07:10:38;;;;;;;9.18;2.00;;;7.60;99.90;;;;;;6217485;23;20027;-88
2023/04/25 07:13:04;;;;;;;10.95;1.60;;;7.60;99.90;;;;;;6190518;23;20021;-88
2023/04/25 07:15:29;;;;;;;8.75;1.50;;;7.70;99.90;;;;;;6189646;23;20008;-88
2023/04/25 07:17:55;;;;;;;7.30;1.50;;;7.70;99.90;;;;;;6217151;23;20017;-88
2023/04/25 07:20:20;;;;;;;10.80;1.65;;;7.70;99.90;;;;;;6217140;23;20020;-87
2023/04/25 07:22:46;;;;;;;9.20;1.50;;;7.80;99.90;;;;;;6216860;23;20023;-88
2023/04/25 07:25:12;;;;;;;7.57;1.38;;;7.80;99.90;;;;;;6216847;23;20017;-88
2023/04/25 07:27:37;;;;;;;9.23;1.73;;;7.80;99.90;;;;;;6216635;23;20012;-88
2023/04/25 07:30:04;;;;;;;7.78;1.42;;;7.90;99.90;;;;;;6190474;23;20400;-88
2023/04/25 07:32:30;;;;;;;8.02;1.65;;;7.90;99.90;;;;;;6190113;23;20445;-88
2023/04/25 07:34:56;;;;;;;9.65;1.50;;;7.90;99.90;;;;;;6216533;23;20012;-89
2023/04/25 07:37:21;;;;;;;11.23;1.70;;;7.90;99.90;;;;;;6191414;23;20023;-88
2023/04/25 07:39:47;;;;;;;12.45;1.67;;;8.00;99.90;;;;;;6190045;23;20017;-88
2023/04/25 07:42:13;;;;;;;8.45;1.65;;;8.00;99.90;;;;;;6189696;23;20341;-88
2023/04/25 07:44:39;;;;;;;9.98;1.73;;;8.10;99.90;;;;;;6217105;23;20013;-88
2023/04/25 07:47:09;;;;;;;9.13;1.85;;;8.10;99.90;;;;;;6218618;23;20056;-88
2023/04/25 07:49:38;;;;;;;13.32;2.20;;;8.20;99.90;;;;;;6216247;23;20019;-88
2023/04/25 07:52:05;;;;;;;11.70;1.63;;;8.20;99.90;;;;;;6218768;23;20027;-88
2023/04/25 07:54:32;;;;;;;9.65;1.75;;;8.30;99.90;;;;;;6190878;23;20013;-88
2023/04/25 07:56:58;;;;;;;9.45;1.60;;;8.30;99.90;;;;;;6190413;23;20013;-88
2023/04/25 07:59:24;;;;;;;12.82;1.60;;;8.20;99.90;;;;;;6191760;23;20052;-88
2023/04/25 08:01:50;;;;;;;9.13;1.50;;;8.20;99.90;;;;;;6218432;23;20024;-88
2023/04/25 08:04:16;;;;;;;9.45;1.98;;;8.20;99.90;;;;;;6216513;23;20017;-88
2023/04/25 08:06:42;;;;;;;10.20;1.75;;;8.20;99.90;;;;;;6189555;23;20349;-88
2023/04/25 08:09:09;;;;;;;11.27;2.05;;;8.30;99.90;;;;;;6190350;23;20013;-89
2023/04/25 08:11:35;;;;;;;9.18;1.85;;;8.30;99.90;;;;;;6189361;23;20043;-90
2023/04/25 08:14:01;;;;;;;10.32;1.50;;;8.30;99.90;;;;;;6216962;23;20063;-90
2023/04/25 08:16:27;;;;;;;8.85;1.48;;;8.30;99.90;;;;;;6217472;23;20008;-90
2023/04/25 08:18:53;;;;;;;9.18;1.48;;;8.40;99.90;;;;;;6189057;23;20017;-89
2023/04/25 08:21:20;;;;;;;6.78;1.77;;;8.40;99.90;;;;;;6189847;23;20520;-88
2023/04/25 08:23:45;;;;;;;8.52;1.33;;;8.50;99.90;;;;;;6188711;23;20017;-88
2023/04/25 08:26:11;;;;;;;7.45;1.35;;;8.50;99.90;;;;;;6216461;23;20441;-90
2023/04/25 08:28:37;;;;;;;10.10;1.30;;;8.60;99.90;;;;;;6189830;23;20064;-87
2023/04/25 08:31:02;;;;;;;8.77;1.60;;;8.60;99.90;;;;;;6189196;23;20039;-89
2023/04/25 08:33:28;;;;;;;12.32;1.67;;;8.70;99.90;;;;;;6189798;23;20017;-91
2023/04/25 08:35:54;;;;;;;5.60;1.23;;;8.70;99.90;;;;;;6189946;23;20512;-91
2023/04/25 08:38:21;;;;;;;9.05;1.50;;;8.80;99.90;;;;;;6216674;23;20084;-91
2023/04/25 08:40:50;;;;;;;8.43;1.50;;;8.80;99.90;;;;;;6190209;23;20164;-91
2023/04/25 08:43:19;;;;;;;14.57;1.90;;;8.90;99.90;;;;;;6216777;23;20008;-90
2023/04/25 08:45:45;;;;;;;10.75;1.50;;;9.00;99.90;;;;;;6189678;23;20067;-90
2023/04/25 08:48:13;;;;;;;9.32;1.75;;;9.10;99.80;;;;;;6217213;23;20025;-90
2023/04/25 08:50:53;;;;;;;10.23;1.50;;;9.10;98.90;;;;;;6190043;23;20031;-89
2023/04/25 08:53:26;;;;;;;10.07;1.65;;;9.20;99.30;;;;;;6189567;23;20103;-90
2023/04/25 08:55:54;;;;;;;7.80;1.52;;;9.30;99.40;;;;;;6217075;23;20349;-90
2023/04/25 08:58:20;;;;;;;7.70;1.05;;;9.40;99.90;;;;;;6216978;23;20074;-88
2023/04/25 09:00:50;;;;;;;6.93;1.15;;;9.40;99.70;;;;;;6188865;23;20032;-90
2023/04/25 09:03:16;;;;;;;8.63;1.30;;;9.40;99.40;;;;;;6190691;23;20017;-91
2023/04/25 09:05:42;;;;;;;9.77;1.20;;;9.30;99.40;;;;;;6191001;23;20012;-93
2023/04/25 09:08:08;;;;;;;6.35;1.10;;;9.30;99.50;;;;;;6191713;23;20070;-92
2023/04/25 09:10:34;;;;;;;6.10;1.05;;;9.20;98.70;;;;;;6192893;23;20023;-93
2023/04/25 09:13:17;;;;;;;8.05;1.40;;;9.00;99.60;;;;;;6218999;23;20040;-92
2023/04/25 09:15:54;;;;;;;7.22;1.40;;;9.00;99.90;;;;;;6192858;23;20064;-93
2023/04/25 09:18:31;;;;;;;6.70;1.08;;;9.00;99.90;;;;;;6191892;23;20475;-92
2023/04/25 09:21:08;;;;;;;9.10;1.20;;;9.00;99.90;;;;;;6219244;23;20082;-93
2023/04/25 09:23:51;;;;;;;6.95;1.25;;;9.10;99.90;;;;;;6190213;23;20023;-89
2023/04/25 09:26:19;;;;;;;10.52;1.27;;;9.10;99.90;;;;;;6189684;23;20013;-89
2023/04/25 09:28:47;;;;;;;5.63;1.27;;;9.20;99.90;;;;;;6189549;23;20048;-89
2023/04/25 09:31:23;;;;;;;6.82;1.10;;;9.30;99.90;;;;;;6190107;23;20020;-89
2023/04/25 09:33:48;;;;;;;6.65;1.30;;;9.30;99.90;;;;;;6189238;23;20319;-86
2023/04/25 09:36:15;;;;;;;6.45;1.30;;;9.40;99.90;;;;;;6215771;23;20016;-87
2023/04/25 09:38:45;;;;;;;9.70;1.52;;;9.40;99.90;;;;;;6189465;23;20457;-87
2023/04/25 09:41:11;;;;;;;5.70;1.30;;;9.50;99.90;;;;;;6188922;23;20048;-85
2023/04/25 09:43:38;;;;;;;6.68;1.45;;;9.60;99.90;;;;;;6188746;23;20048;-85
2023/04/25 09:46:11;;;;;;;8.75;1.63;;;9.70;99.90;;;;;;6216147;23;20052;-88
2023/04/25 09:48:37;;;;;;;10.20;1.80;;;9.70;99.90;;;;;;6215278;23;20012;-87
2023/04/25 09:51:15;;;;;;;10.63;1.60;;;9.80;99.90;;;;;;6189334;23;20047;-88
2023/04/25 09:53:42;;;;;;;8.43;1.55;;;9.80;99.90;;;;;;6215856;23;20016;-88
2023/04/25 09:56:09;;;;;;;6.15;1.40;;;9.80;99.90;;;;;;6188380;23;20013;-88
2023/04/25 09:58:37;;;;;;;6.43;1.30;;;9.90;99.80;;;;;;6215899;23;20095;-87
2023/04/25 10:01:06;;;;;;;9.18;1.55;;;10.00;99.60;;;;;;6215666;23;20015;-85
2023/04/25 10:03:33;;;;;;;10.32;1.42;;;10.00;99.80;;;;;;6188044;23;20017;-87
2023/04/25 10:06:05;;;;;;;8.30;1.40;;;10.00;99.50;;;;;;6215767;23;20016;-87
2023/04/25 10:08:33;;;;;;;7.95;1.83;;;10.10;99.50;;;;;;6215445;23;20046;-87
2023/04/25 10:11:07;;;;;;;7.50;1.60;;;10.20;99.50;;;;;;6188224;23;20044;-87
2023/04/25 10:13:34;;;;;;;9.20;1.60;;;10.20;99.20;;;;;;6188947;23;20013;-86
2023/04/25 10:16:03;;;;;;;9.35;1.15;;;10.20;99.20;;;;;;6189293;23;20039;-87
2023/04/25 10:18:30;;;;;;;7.63;1.50;;;10.20;99.00;;;;;;6188440;23;20067;-87
2023/04/25 10:21:01;;;;;;;9.27;1.60;;;10.30;99.30;;;;;;6188553;23;20016;-86
2023/04/25 10:23:28;;;;;;;12.25;1.63;;;10.30;99.10;;;;;;6214845;23;20012;-87
2023/04/25 10:25:55;;;;;;;6.85;1.40;;;10.30;98.80;;;;;;6205085;23;20016;-87
2023/04/25 10:28:21;;;;;;;10.30;1.65;;;10.30;98.90;;;;;;6225015;23;20028;-86
2023/04/25 10:31:03;;;;;;;8.48;1.70;;;10.30;98.50;;;;;;6220335;23;20009;-87
2023/04/25 10:33:38;;;;;;;9.60;1.38;;;10.40;99.20;;;;;;6188911;23;20453;-87
2023/04/25 10:36:18;;;;;;;9.65;1.58;;;10.40;98.40;;;;;;6215720;23;20019;-87
2023/04/25 10:38:44;;;;;;;9.60;1.70;;;10.40;97.20;;;;;;6214262;23;20023;-87
2023/04/25 10:41:12;;;;;;;9.43;1.55;;;10.40;97.20;;;;;;6188833;23;20050;-86
2023/04/25 10:43:46;;;;;;;8.25;1.63;;;10.40;96.70;;;;;;6188363;23;20013;-87
2023/04/25 10:46:24;;;;;;;8.57;2.17;;;10.50;97.20;;;;;;6188000;23;20021;-86
2023/04/25 10:48:51;;;;;;;8.75;1.23;;;10.50;96.70;;;;;;6188615;23;20012;-86
2023/04/25 10:51:22;;;;;;;6.85;1.23;;;10.60;96.70;;;;;;6215132;23;20020;-86
2023/04/25 10:53:57;;;;;;;7.15;1.20;;;10.70;96.30;;;;;;6188506;23;20008;-87
2023/04/25 10:56:29;;;;;;;5.47;0.98;;;10.60;95.50;;;;;;6216232;23;20019;-89
2023/04/25 10:59:15;;;;;;;6.68;1.10;;;10.60;96.10;;;;;;6215411;23;20492;-89
2023/04/25 11:01:43;;;;;;;5.50;1.25;;;10.50;95.00;;;;;;6189292;23;20021;-88
2023/04/25 11:04:30;;;;;;;7.22;1.30;;;10.50;96.80;;;;;;6188996;23;20084;-89
2023/04/25 11:07:09;;;;;;;5.22;1.13;;;10.50;97.50;;;;;;6187931;23;20017;-90
2023/04/25 11:09:37;;;;;;;7.43;1.30;;;10.50;98.30;;;;;;6215810;23;20437;-89
2023/04/25 11:12:03;;;;;;;6.65;1.17;;;10.50;98.40;;;;;;6189143;23;20019;-89
2023/04/25 11:14:29;;;;;;;6.30;1.08;;;10.50;98.40;;;;;;6187574;23;20099;-89
2023/04/25 11:16:56;;;;;;;5.22;1.10;;;10.50;97.60;;;;;;6188499;23;20020;-87
2023/04/25 11:19:22;;;;;;;7.13;1.00;;;10.40;97.40;;;;;;6215488;23;20258;-87
2023/04/25 11:21:48;;;;;;;4.18;1.13;;;10.30;97.20;;;;;;6213286;23;20032;-87
2023/04/25 11:24:15;;;;;;;5.10;1.13;;;10.30;96.90;;;;;;6188311;23;20100;-89
2023/04/25 11:26:42;;;;;;;6.15;1.17;;;10.20;97.40;;;;;;6186952;23;20027;-87
2023/04/25 11:29:08;;;;;;;7.50;1.10;;;10.20;98.00;;;;;;6188442;23;20016;-88
2023/04/25 11:31:34;;;;;;;5.78;1.13;;;10.30;98.60;;;;;;6188533;23;20027;-87
2023/04/25 11:34:00;;;;;;;6.07;1.10;;;10.30;98.70;;;;;;6187692;23;20016;-87
2023/04/25 11:36:27;;;;;;;8.18;1.58;;;10.30;98.80;;;;;;6188504;23;20341;-87
2023/04/25 11:38:53;;;;;;;8.63;1.45;;;10.40;98.40;;;;;;6215009;23;20013;-87
2023/04/25 11:41:22;;;;;;;9.57;1.40;;;10.40;98.40;;;;;;6187630;23;20044;-87
2023/04/25 11:43:49;;;;;;;8.48;1.58;;;10.50;97.90;;;;;;6182574;23;20063;-87
2023/04/25 11:46:15;;;;;;;12.73;1.70;;;10.60;98.10;;;;;;6185398;23;20021;-88
2023/04/25 11:48:42;;;;;;;10.10;1.50;;;10.60;98.00;;;;;;6182652;23;20377;-87
2023/04/25 11:51:08;;;;;;;10.52;1.50;;;10.60;97.20;;;;;;6187192;23;20071;-87
2023/04/25 11:53:34;;;;;;;8.25;1.33;;;10.60;97.30;;;;;;6184892;23;20024;-87
2023/04/25 11:56:01;;;;;;;9.23;1.55;;;10.60;96.90;;;;;;6184190;23;20095;-86
2023/04/25 11:58:26;;;;;;;9.55;1.50;;;10.60;96.70;;;;;;6185205;23;20013;-86
2023/04/25 12:00:53;;;;;;;12.27;1.73;;;10.60;97.30;;;;;;6184974;23;20044;-87
2023/04/25 12:03:19;;;;;;;10.52;2.03;;;10.60;96.60;;;;;;6186383;23;20009;-87
2023/04/25 12:05:45;;;;;;;12.00;1.58;;;10.60;96.20;;;;;;6184689;23;20075;-89
2023/04/25 12:08:15;;;;;;;9.75;1.48;;;10.60;96.20;;;;;;6185164;23;20027;-89
2023/04/25 12:10:43;;;;;;;10.88;1.80;;;10.50;96.40;;;;;;6183751;23;20013;-90
2023/04/25 12:13:22;;;;;;;10.18;1.77;;;10.50;96.50;;;;;;6187231;23;20080;-89
2023/04/25 12:15:48;;;;;;;11.75;1.98;;;10.50;96.90;;;;;;6184167;23;20442;-87
2023/04/25 12:18:14;;;;;;;9.25;1.80;;;10.50;96.90;;;;;;6184967;23;20020;-88
2023/04/25 12:20:41;;;;;;;9.68;1.63;;;10.60;97.20;;;;;;6186543;23;20087;-87
2023/04/25 12:23:11;;;;;;;8.30;1.33;;;10.60;96.90;;;;;;6184290;23;20017;-88
2023/04/25 12:25:41;;;;;;;5.57;1.23;;;10.50;96.50;;;;;;6186766;23;20376;-88
2023/04/25 12:28:20;;;;;;;7.57;1.35;;;10.50;96.10;;;;;;6184682;23;20763;-88
2023/04/25 12:30:56;;;;;;;7.75;1.50;;;10.40;97.00;;;;;;6183993;23;20013;-87
2023/04/25 12:33:27;;;;;;;8.00;1.60;;;10.40;97.40;;;;;;6185321;23;20457;-87
2023/04/25 12:35:54;;;;;;;7.70;1.30;;;10.40;98.10;;;;;;6184747;23;20024;-88
2023/04/25 12:38:27;;;;;;;6.95;1.40;;;10.40;98.60;;;;;;6184568;23;20017;-87
2023/04/25 12:40:53;;;;;;;8.68;1.17;;;10.40;97.70;;;;;;6184654;23;20028;-88
2023/04/25 12:43:19;;;;;;;8.82;1.60;;;10.40;97.30;;;;;;6190624;23;20020;-87
2023/04/25 12:45:49;;;;;;;11.48;1.42;;;10.40;97.50;;;;;;6215603;23;20479;-88
2023/04/25 12:48:15;;;;;;;8.07;1.60;;;10.40;97.10;;;;;;6216558;23;20013;-86
2023/04/25 12:50:41;;;;;;;8.57;1.77;;;10.50;97.80;;;;;;6189691;23;20070;-86